createdAt,value
2022-09-11T00:02:01.875Z,0.80
2022-09-11T00:04:31.215Z,0.93
2022-09-11T00:06:59.999Z,0.60
2022-09-11T00:09:28.466Z,0.70
2022-09-11T00:11:57.046Z,0.97
2022-09-11T00:14:28.960Z,0.53
2022-09-11T00:16:57.959Z,0.43
2022-09-11T00:19:28.666Z,0.70
2022-09-11T00:22:15.283Z,0.87
2022-09-11T00:25:02.101Z,0.80
2022-09-11T00:27:30.536Z,0.60
2022-09-11T00:29:58.967Z,0.90
2022-09-11T00:32:27.394Z,0.70
2022-09-11T00:34:57.231Z,0.70
2022-09-11T00:37:25.752Z,0.83
2022-09-11T00:39:54.594Z,1.13
2022-09-11T00:42:23.082Z,1.00
2022-09-11T00:45:01.402Z,0.77
2022-09-11T00:47:31.210Z,0.70
2022-09-11T00:50:09.599Z,0.70
2022-09-11T00:52:41.258Z,0.77
2022-09-11T00:55:14.604Z,0.70
2022-09-11T00:57:45.631Z,0.60
2022-09-11T01:00:14.793Z,0.70
2022-09-11T01:02:45.819Z,0.80
2022-09-11T01:05:16.679Z,0.70
2022-09-11T01:07:46.294Z,0.60
2022-09-11T01:10:15.553Z,0.77
2022-09-11T01:12:49.072Z,0.60
2022-09-11T01:15:22.649Z,0.50
2022-09-11T01:17:57.064Z,0.53
2022-09-11T01:20:43.676Z,0.53
2022-09-11T01:23:38.964Z,0.80
2022-09-11T01:26:32.544Z,0.40
2022-09-11T01:29:04.582Z,0.50
2022-09-11T01:31:38.148Z,0.90
2022-09-11T01:34:11.572Z,0.83
2022-09-11T01:36:42.093Z,0.57
2022-09-11T01:39:11.001Z,0.60
2022-09-11T01:41:46.111Z,0.57
2022-09-11T01:44:18.683Z,0.63
2022-09-11T01:46:50.021Z,0.80
2022-09-11T01:49:21.707Z,0.60
2022-09-11T01:51:53.018Z,0.33
2022-09-11T01:54:24.758Z,0.53
2022-09-11T01:56:55.876Z,0.70
2022-09-11T01:59:28.899Z,0.60
2022-09-11T02:02:02.222Z,0.70
2022-09-11T02:04:33.367Z,0.50
2022-09-11T02:07:05.181Z,0.70
2022-09-11T02:09:37.592Z,0.60
2022-09-11T02:12:09.151Z,0.40
2022-09-11T02:14:41.274Z,0.50
2022-09-11T02:17:18.730Z,0.87
2022-09-11T02:19:47.217Z,0.63
2022-09-11T02:22:15.715Z,0.60
2022-09-11T02:24:44.205Z,0.40
2022-09-11T02:27:16.935Z,0.60
2022-09-11T02:29:47.122Z,0.60
2022-09-11T02:32:15.786Z,0.63
2022-09-11T02:34:45.351Z,0.40
2022-09-11T02:37:20.267Z,0.60
2022-09-11T02:40:01.721Z,0.80
2022-09-11T02:42:46.348Z,0.60
2022-09-11T02:45:26.265Z,0.50
2022-09-11T02:48:02.158Z,0.60
2022-09-11T02:50:42.787Z,0.50
2022-09-11T02:53:15.692Z,0.77
2022-09-11T02:55:53.931Z,0.70
2022-09-11T02:58:26.947Z,0.60
2022-09-11T03:00:59.924Z,0.70
2022-09-11T03:03:28.560Z,0.53
2022-09-11T03:05:57.053Z,0.50
2022-09-11T03:08:25.534Z,0.70
2022-09-11T03:10:55.967Z,0.67
2022-09-11T03:13:24.795Z,0.70
2022-09-11T03:15:53.870Z,0.40
2022-09-11T03:18:23.823Z,0.57
2022-09-11T03:20:52.219Z,0.50
2022-09-11T03:23:20.697Z,0.80
2022-09-11T03:25:49.144Z,0.50
2022-09-11T03:28:17.533Z,0.60
2022-09-11T03:30:45.964Z,0.67
2022-09-11T03:33:14.450Z,0.40
2022-09-11T03:35:44.684Z,0.70
2022-09-11T03:38:13.226Z,0.60
2022-09-11T03:40:43.542Z,0.77
2022-09-11T03:43:12.499Z,0.70
2022-09-11T03:45:41.128Z,0.70
2022-09-11T03:48:10.133Z,1.40
2022-09-11T03:50:38.626Z,0.70
2022-09-11T03:53:08.444Z,0.70
2022-09-11T03:55:36.988Z,0.60
2022-09-11T03:58:07.165Z,0.80
2022-09-11T04:00:36.442Z,0.53
2022-09-11T04:03:05.176Z,0.70
2022-09-11T04:05:33.619Z,0.63
2022-09-11T04:08:02.229Z,0.57
2022-09-11T04:10:33.818Z,0.60
2022-09-11T04:13:02.705Z,0.77
2022-09-11T04:15:32.943Z,0.60
2022-09-11T04:18:05.426Z,0.70
2022-09-11T04:20:34.153Z,0.70
2022-09-11T04:23:03.007Z,0.70
2022-09-11T04:25:32.826Z,0.70
2022-09-11T04:28:01.962Z,0.60
2022-09-11T04:30:30.454Z,0.93
2022-09-11T04:32:59.054Z,0.60
2022-09-11T04:35:27.616Z,1.03
2022-09-11T04:37:56.167Z,1.00
2022-09-11T04:40:24.807Z,0.70
2022-09-11T04:42:54.644Z,1.17
2022-09-11T04:45:23.167Z,0.90
2022-09-11T04:47:53.022Z,1.30
2022-09-11T04:50:21.510Z,1.07
2022-09-11T04:52:50.255Z,1.13
2022-09-11T04:55:19.815Z,1.00
2022-09-11T04:57:48.238Z,0.80
2022-09-11T05:00:18.427Z,0.60
2022-09-11T05:02:47.786Z,0.80
2022-09-11T05:05:16.347Z,0.93
2022-09-11T05:07:44.777Z,0.70
2022-09-11T05:10:13.223Z,0.80
2022-09-11T05:12:41.657Z,0.50
2022-09-11T05:15:11.395Z,0.67
2022-09-11T05:17:41.184Z,0.60
2022-09-11T05:20:12.009Z,0.70
2022-09-11T05:22:40.650Z,0.93
2022-09-11T05:25:09.931Z,0.80
2022-09-11T05:27:38.348Z,0.90
2022-09-11T05:30:08.034Z,1.03
2022-09-11T05:32:36.593Z,0.77
2022-09-11T05:35:07.771Z,0.90
2022-09-11T05:37:36.570Z,1.03
2022-09-11T05:40:05.605Z,3.80
2022-09-11T05:42:34.098Z,4.00
2022-09-11T05:45:02.600Z,2.87
2022-09-11T05:47:31.010Z,1.93
2022-09-11T05:49:59.398Z,1.30
2022-09-11T05:52:29.861Z,1.30
2022-09-11T05:54:58.342Z,1.17
2022-09-11T05:57:26.734Z,1.07
2022-09-11T05:59:55.090Z,1.10
2022-09-11T06:02:23.565Z,1.00
2022-09-11T06:04:52.116Z,1.10
2022-09-11T06:07:20.510Z,1.20
2022-09-11T06:09:50.456Z,1.00
2022-09-11T06:12:19.134Z,1.30
2022-09-11T06:14:47.558Z,1.10
2022-09-11T06:17:16.003Z,1.10
2022-09-11T06:19:44.411Z,1.30
2022-09-11T06:22:12.837Z,1.00
2022-09-11T06:24:41.251Z,1.17
2022-09-11T06:27:11.346Z,0.90
2022-09-11T06:29:39.782Z,1.20
2022-09-11T06:32:08.794Z,1.30
2022-09-11T06:34:37.819Z,1.37
2022-09-11T06:37:06.306Z,0.97
2022-09-11T06:39:35.541Z,2.00
2022-09-11T06:42:04.151Z,8.27
2022-09-11T06:44:34.004Z,7.63
2022-09-11T06:47:02.542Z,2.53
2022-09-11T06:49:31.063Z,1.30
2022-09-11T06:51:59.514Z,1.30
2022-09-11T06:54:27.970Z,1.43
2022-09-11T06:56:56.832Z,1.50
2022-09-11T06:59:25.996Z,1.17
2022-09-11T07:01:55.907Z,1.10
2022-09-11T07:04:24.443Z,1.17
2022-09-11T07:06:53.024Z,1.10
2022-09-11T07:09:21.557Z,1.13
2022-09-11T07:11:49.953Z,1.10
2022-09-11T07:14:21.374Z,4.80
2022-09-11T07:16:51.075Z,5.23
2022-09-11T07:19:21.167Z,1.60
2022-09-11T07:21:49.685Z,1.30
2022-09-11T07:24:18.496Z,1.33
2022-09-11T07:26:47.060Z,1.37
2022-09-11T07:29:15.661Z,1.30
2022-09-11T07:31:44.202Z,1.20
2022-09-11T07:34:12.643Z,1.30
2022-09-11T07:36:42.565Z,1.27
2022-09-11T07:39:11.222Z,1.23
2022-09-11T07:41:39.654Z,1.00
2022-09-11T07:44:08.222Z,0.90
2022-09-11T07:46:40.264Z,0.90
2022-09-11T07:49:10.843Z,0.80
2022-09-11T07:51:39.985Z,0.80
2022-09-11T07:54:10.914Z,0.77
2022-09-11T07:56:39.739Z,0.90
2022-09-11T07:59:08.919Z,0.60
2022-09-11T08:01:37.761Z,0.60
2022-09-11T08:04:08.395Z,0.80
2022-09-11T08:06:38.343Z,3.40
2022-09-11T08:09:10.228Z,5.40
2022-09-11T08:11:39.796Z,5.07
2022-09-11T08:14:08.956Z,9.17
2022-09-11T08:16:37.458Z,3.50
2022-09-11T08:19:06.548Z,2.00
2022-09-11T08:21:35.190Z,1.30
2022-09-11T08:24:04.900Z,1.50
2022-09-11T08:26:37.873Z,1.03
2022-09-11T08:29:06.741Z,0.97
2022-09-11T08:31:35.817Z,3.80
2022-09-11T08:34:06.711Z,2.10
2022-09-11T08:36:35.148Z,0.97
2022-09-11T08:39:03.766Z,1.23
2022-09-11T08:41:41.181Z,1.20
2022-09-11T08:44:17.320Z,1.03
2022-09-11T08:46:49.162Z,1.00
2022-09-11T08:49:24.376Z,1.20
2022-09-11T08:51:54.123Z,1.40
2022-09-11T08:54:27.740Z,1.40
2022-09-11T08:57:11.604Z,1.23
2022-09-11T08:59:58.209Z,1.00
2022-09-11T09:02:51.697Z,0.97
2022-09-11T09:05:29.379Z,0.90
2022-09-11T09:08:11.515Z,0.80
2022-09-11T09:10:51.268Z,0.60
2022-09-11T09:13:33.975Z,0.67
2022-09-11T09:16:10.870Z,1.17
2022-09-11T09:18:42.581Z,0.90
2022-09-11T09:21:14.245Z,0.80
2022-09-11T09:23:46.056Z,2.50
2022-09-11T09:26:17.858Z,1.03
2022-09-11T09:28:50.688Z,3.50
2022-09-11T09:31:22.116Z,9.90
2022-09-11T09:33:53.963Z,26.90
2022-09-11T09:36:24.922Z,20.67
2022-09-11T09:38:53.886Z,6.77
2022-09-11T09:41:49.631Z,16.87
2022-09-11T09:44:28.397Z,3.70
2022-09-11T09:46:57.336Z,2.00
2022-09-11T09:49:27.703Z,2.70
2022-09-11T09:52:03.597Z,2.40
2022-09-11T09:54:36.531Z,1.60
2022-09-11T09:57:08.341Z,2.27
2022-09-11T09:59:42.211Z,1.47
2022-09-11T10:02:10.848Z,0.93
2022-09-11T10:04:40.004Z,2.00
2022-09-11T10:07:10.707Z,1.50
2022-09-11T10:09:46.932Z,1.37
2022-09-11T10:12:18.180Z,2.30
2022-09-11T10:14:54.495Z,2.43
2022-09-11T10:17:25.091Z,2.23
2022-09-11T10:19:57.122Z,1.00
2022-09-11T10:22:28.101Z,0.83
2022-09-11T10:25:14.542Z,1.37
2022-09-11T10:27:56.440Z,1.20
2022-09-11T10:30:33.962Z,1.00
2022-09-11T10:33:05.383Z,0.80
2022-09-11T10:35:35.636Z,1.73
2022-09-11T10:38:17.894Z,2.30
2022-09-11T10:41:09.469Z,1.20
2022-09-11T10:43:43.665Z,1.43
2022-09-11T10:46:41.549Z,1.30
2022-09-11T10:49:18.090Z,1.40
2022-09-11T10:52:01.218Z,0.83
2022-09-11T10:54:45.970Z,0.60
2022-09-11T10:57:33.783Z,0.50
2022-09-11T11:00:17.079Z,0.60
2022-09-11T11:02:50.531Z,0.40
2022-09-11T11:05:24.642Z,0.20
2022-09-11T11:08:27.779Z,0.40
2022-09-11T11:11:15.198Z,1.47
2022-09-11T11:13:56.281Z,1.50
2022-09-11T11:16:32.401Z,0.53
2022-09-11T11:19:12.473Z,0.63
2022-09-11T11:21:50.150Z,0.60
2022-09-11T11:24:27.654Z,0.30
2022-09-11T11:27:21.319Z,0.40
2022-09-11T11:30:13.111Z,0.30
2022-09-11T11:33:10.055Z,0.20
2022-09-11T11:35:46.089Z,0.43
2022-09-11T11:38:20.403Z,0.30
2022-09-11T11:40:53.367Z,0.23
2022-09-11T11:43:24.312Z,0.80
2022-09-11T11:45:56.096Z,0.40
2022-09-11T11:48:29.325Z,0.30
2022-09-11T11:51:02.921Z,0.40
2022-09-11T11:53:37.003Z,1.53
2022-09-11T11:56:11.719Z,1.03
2022-09-11T11:58:47.200Z,0.60
2022-09-11T12:01:21.706Z,0.27
2022-09-11T12:03:54.089Z,0.20
2022-09-11T12:06:24.353Z,0.37
2022-09-11T12:08:56.368Z,0.30
2022-09-11T12:11:30.408Z,0.30
2022-09-11T12:13:59.388Z,0.30
2022-09-11T12:16:31.766Z,0.30
2022-09-11T12:19:07.524Z,0.37
2022-09-11T12:21:42.758Z,0.30
2022-09-11T12:24:14.322Z,0.40
2022-09-11T12:26:43.203Z,0.47
2022-09-11T12:29:51.720Z,0.40
2022-09-11T12:32:43.070Z,0.33
2022-09-11T12:35:27.859Z,0.20
2022-09-11T12:38:01.765Z,0.20
2022-09-11T12:40:40.528Z,2.10
2022-09-11T12:43:29.333Z,0.60
2022-09-11T12:45:58.268Z,0.30
2022-09-11T12:48:39.652Z,2.30
2022-09-11T12:51:22.505Z,0.50
2022-09-11T12:53:54.795Z,0.40
2022-09-11T12:56:27.561Z,0.40
2022-09-11T12:58:59.012Z,0.50
2022-09-11T13:01:31.031Z,0.50
2022-09-11T13:04:03.329Z,0.60
2022-09-11T13:06:40.858Z,0.50
2022-09-11T13:09:20.042Z,0.90
2022-09-11T13:11:50.258Z,0.90
2022-09-11T13:14:48.207Z,0.90
2022-09-11T13:17:25.820Z,6.57
2022-09-11T13:19:58.702Z,16.87
2022-09-11T13:22:31.360Z,8.20
2022-09-11T13:25:11.234Z,2.93
2022-09-11T13:27:41.706Z,1.73
2022-09-11T13:30:12.235Z,0.80
2022-09-11T13:32:40.706Z,0.73
2022-09-11T13:35:16.251Z,1.10
2022-09-11T13:37:47.288Z,1.70
2022-09-11T13:40:21.268Z,0.90
2022-09-11T13:42:50.634Z,4.00
2022-09-11T13:45:22.650Z,18.23
2022-09-11T13:47:52.934Z,1.23
2022-09-11T13:50:22.866Z,1.03
2022-09-11T13:52:53.106Z,0.70
2022-09-11T13:55:25.726Z,2.83
2022-09-11T13:57:56.197Z,1.87
2022-09-11T14:00:45.535Z,1.10
2022-09-11T14:03:21.539Z,0.40
2022-09-11T14:05:53.963Z,0.40
2022-09-11T14:08:32.634Z,0.40
2022-09-11T14:11:07.071Z,0.50
2022-09-11T14:13:42.428Z,0.50
2022-09-11T14:16:22.318Z,1.70
2022-09-11T14:18:53.648Z,1.37
2022-09-11T14:21:24.137Z,0.67
2022-09-11T14:23:53.855Z,0.60
2022-09-11T14:26:25.726Z,0.20
2022-09-11T14:29:02.586Z,2.40
2022-09-11T14:31:35.095Z,1.40
2022-09-11T14:34:17.907Z,0.40
2022-09-11T14:36:53.128Z,0.20
2022-09-11T14:39:34.257Z,0.40
2022-09-11T14:42:06.094Z,0.40
2022-09-11T14:44:35.713Z,1.00
2022-09-11T14:47:04.231Z,0.90
2022-09-11T14:49:32.743Z,1.50
2022-09-11T14:52:02.406Z,5.63
2022-09-11T14:54:32.130Z,1.00
2022-09-11T14:57:01.282Z,0.90
2022-09-11T14:59:31.278Z,0.40
2022-09-11T15:02:00.135Z,0.60
2022-09-11T15:04:29.701Z,0.20
2022-09-11T15:07:00.518Z,9.53
2022-09-11T15:09:31.530Z,2.73
2022-09-11T15:12:01.845Z,0.67
2022-09-11T15:17:24.923Z,0.40
2022-09-11T15:19:53.750Z,2.37
2022-09-11T15:22:22.203Z,4.17
2022-09-11T15:24:50.995Z,2.63
2022-09-11T15:27:25.217Z,4.67
2022-09-11T15:29:55.427Z,6.23
2022-09-11T15:32:23.993Z,1.77
2022-09-11T15:34:54.803Z,1.10
2022-09-11T15:37:23.740Z,1.30
2022-09-11T15:39:52.405Z,0.67
2022-09-11T15:42:20.935Z,0.80
2022-09-11T15:44:50.232Z,0.97
2022-09-11T15:47:20.126Z,0.90
2022-09-11T15:49:48.718Z,0.57
2022-09-11T15:52:17.206Z,0.50
2022-09-11T15:54:47.677Z,0.53
2022-09-11T15:57:16.919Z,0.33
2022-09-11T15:59:45.599Z,0.50
2022-09-11T16:02:14.290Z,0.50
2022-09-11T16:04:44.108Z,0.40
2022-09-11T16:07:12.657Z,0.40
2022-09-11T16:09:41.313Z,0.63
2022-09-11T16:12:13.876Z,0.50
2022-09-11T16:14:42.967Z,0.50
2022-09-11T16:17:11.673Z,3.37
2022-09-11T16:19:40.671Z,7.30
2022-09-11T16:22:10.675Z,3.40
2022-09-11T16:24:39.171Z,1.20
2022-09-11T16:27:09.520Z,0.90
2022-09-11T16:30:15.561Z,1.00
2022-09-11T16:32:29.871Z,0.63
2022-09-11T16:35:04.413Z,0.40
2022-09-11T16:37:35.488Z,0.33
2022-09-11T16:40:10.678Z,1.00
2022-09-11T16:42:39.593Z,0.80
2022-09-11T16:45:09.262Z,0.60
2022-09-11T16:47:37.853Z,0.87
2022-09-11T16:50:08.564Z,0.90
2022-09-11T16:52:39.120Z,0.80
2022-09-11T16:55:09.602Z,0.90
2022-09-11T16:57:40.570Z,0.90
2022-09-11T17:00:10.922Z,1.23
2022-09-11T17:02:39.900Z,1.70
2022-09-11T17:05:13.271Z,1.70
2022-09-11T17:07:43.252Z,1.70
2022-09-11T17:10:12.046Z,1.50
2022-09-11T17:12:42.851Z,1.77
2022-09-11T17:15:11.902Z,1.80
2022-09-11T17:17:46.541Z,1.70
2022-09-11T17:20:16.183Z,1.60
2022-09-11T17:22:46.339Z,1.60
2022-09-11T17:25:15.351Z,0.93
2022-09-11T17:27:44.107Z,0.50
2022-09-11T17:30:15.479Z,2.30
2022-09-11T17:32:44.924Z,8.97
2022-09-11T17:35:14.888Z,4.73
2022-09-11T17:37:43.858Z,3.30
2022-09-11T17:40:18.386Z,2.50
2022-09-11T17:42:48.658Z,2.30
2022-09-11T17:45:17.371Z,1.90
2022-09-11T17:47:45.828Z,1.70
2022-09-11T17:50:15.138Z,1.10
2022-09-11T17:52:44.040Z,1.30
2022-09-11T17:55:14.063Z,1.23
2022-09-11T17:57:45.465Z,1.20
2022-09-11T18:00:15.119Z,1.30
2022-09-11T18:02:46.509Z,0.97
2022-09-11T18:05:15.215Z,1.10
2022-09-11T18:07:43.847Z,0.83
2022-09-11T18:10:14.060Z,1.57
2022-09-11T18:12:42.647Z,1.60
2022-09-11T18:15:11.638Z,2.10
2022-09-11T18:17:40.128Z,1.40
2022-09-11T18:20:09.698Z,4.30
2022-09-11T18:22:39.851Z,5.40
2022-09-11T18:25:09.831Z,9.30
2022-09-11T18:27:41.105Z,1.70
2022-09-11T18:30:10.661Z,1.60
2022-09-11T18:32:39.988Z,3.20
2022-09-11T18:35:09.900Z,4.60
2022-09-11T18:37:38.739Z,4.60
2022-09-11T18:40:08.558Z,6.73
2022-09-11T18:42:37.135Z,7.23
2022-09-11T18:45:08.470Z,1.80
2022-09-11T18:47:37.617Z,3.23
2022-09-11T18:50:07.079Z,3.90
2022-09-11T18:52:35.507Z,3.40
2022-09-11T18:55:04.167Z,3.60
2022-09-11T18:57:40.110Z,2.53
2022-09-11T19:00:15.449Z,2.80
2022-09-11T19:02:45.722Z,1.83
2022-09-11T19:05:15.508Z,2.40
2022-09-11T19:07:44.366Z,1.77
2022-09-11T19:10:13.267Z,3.30
2022-09-11T19:12:42.307Z,2.70
2022-09-11T19:15:12.518Z,2.80
2022-09-11T19:17:42.051Z,3.40
2022-09-11T19:20:12.178Z,17.73
2022-09-11T19:22:40.659Z,16.07
2022-09-11T19:25:10.224Z,17.67
2022-09-11T19:27:38.705Z,41.20
2022-09-11T19:30:08.709Z,30.87
2022-09-11T19:32:38.742Z,26.00
2022-09-11T19:35:07.971Z,12.07
2022-09-11T19:37:36.825Z,13.50
2022-09-11T19:40:07.114Z,9.30
2022-09-11T19:42:35.615Z,7.50
2022-09-11T19:45:05.888Z,16.00
2022-09-11T19:47:34.354Z,10.97
2022-09-11T19:50:04.392Z,6.73
2022-09-11T19:52:33.323Z,7.90
2022-09-11T19:55:03.912Z,11.50
2022-09-11T19:57:32.400Z,8.47
2022-09-11T20:00:00.845Z,6.07
2022-09-11T20:02:29.767Z,6.30
2022-09-11T20:04:58.217Z,6.20
2022-09-11T20:07:28.685Z,5.00
2022-09-11T20:09:57.132Z,6.37
2022-09-11T20:12:25.595Z,5.30
2022-09-11T20:14:54.121Z,2.90
2022-09-11T20:17:22.568Z,3.57
2022-09-11T20:19:51.054Z,2.90
2022-09-11T20:22:19.983Z,6.33
2022-09-11T20:24:50.365Z,9.83
2022-09-11T20:27:19.029Z,8.23
2022-09-11T20:29:47.639Z,6.47
2022-09-11T20:32:17.216Z,11.80
2022-09-11T20:34:45.775Z,17.67
2022-09-11T20:37:14.362Z,8.70
2022-09-11T20:39:42.924Z,3.80
2022-09-11T20:42:13.518Z,5.30
2022-09-11T20:44:42.453Z,3.53
2022-09-11T20:47:13.342Z,3.70
2022-09-11T20:49:42.542Z,6.33
2022-09-11T20:52:11.655Z,11.50
2022-09-11T20:54:40.847Z,7.67
2022-09-11T20:57:09.750Z,6.10
2022-09-11T20:59:40.130Z,6.67
2022-09-11T21:02:10.425Z,4.23
2022-09-11T21:04:42.004Z,7.17
2022-09-11T21:07:11.171Z,4.57
2022-09-11T21:09:42.993Z,4.03
2022-09-11T21:12:11.540Z,2.30
2022-09-11T21:14:45.675Z,3.27
2022-09-11T21:17:14.343Z,2.40
2022-09-11T21:19:44.602Z,2.10
2022-09-11T21:22:13.422Z,2.33
2022-09-11T21:24:43.243Z,1.50
2022-09-11T21:27:11.649Z,2.20
2022-09-11T21:29:41.662Z,2.00
2022-09-11T21:32:10.519Z,1.97
2022-09-11T21:34:39.186Z,1.77
2022-09-11T21:37:07.587Z,1.73
2022-09-11T21:39:37.298Z,1.73
2022-09-11T21:42:11.192Z,1.80
2022-09-11T21:44:41.910Z,1.40
2022-09-11T21:47:10.747Z,1.60
2022-09-11T21:49:39.497Z,1.70
2022-09-11T21:52:11.227Z,1.70
2022-09-11T21:54:40.322Z,1.43
2022-09-11T21:57:09.087Z,1.80
2022-09-11T21:59:37.463Z,1.50
2022-09-11T22:02:07.800Z,1.20
2022-09-11T22:04:37.230Z,1.30
2022-09-11T22:07:06.694Z,1.20
2022-09-11T22:09:35.381Z,1.20
2022-09-11T22:12:04.125Z,1.20
2022-09-11T22:14:32.870Z,1.10
2022-09-11T22:17:01.280Z,1.17
2022-09-11T22:19:31.342Z,1.10
2022-09-11T22:21:59.735Z,1.13
2022-09-11T22:24:28.449Z,1.10
2022-09-11T22:26:57.130Z,1.00
2022-09-11T22:29:25.596Z,1.03
2022-09-11T22:31:54.566Z,0.93
2022-09-11T22:34:23.442Z,1.10
2022-09-11T22:36:53.507Z,1.03
2022-09-11T22:39:22.459Z,1.20
2022-09-11T22:41:51.294Z,1.20
2022-09-11T22:44:20.091Z,1.17
2022-09-11T22:46:49.007Z,1.40
2022-09-11T22:49:17.805Z,1.80
2022-09-11T22:51:46.373Z,1.60
2022-09-11T22:54:16.758Z,1.43
2022-09-11T22:56:45.317Z,1.50
2022-09-11T22:59:13.739Z,1.33
2022-09-11T23:01:42.517Z,1.60
2022-09-11T23:04:11.027Z,1.83
2022-09-11T23:07:11.626Z,1.50
2022-09-11T23:09:41.442Z,1.20
2022-09-11T23:12:10.521Z,1.83
2022-09-11T23:14:39.046Z,1.30
2022-09-11T23:17:07.999Z,1.10
2022-09-11T23:19:36.835Z,1.03
2022-09-11T23:22:05.775Z,1.00
2022-09-11T23:24:34.655Z,0.90
2022-09-11T23:27:04.999Z,1.00
2022-09-11T23:29:33.845Z,0.80
2022-09-11T23:32:02.361Z,0.87
2022-09-11T23:34:30.966Z,0.90
2022-09-11T23:36:59.328Z,0.60
2022-09-11T23:39:27.806Z,0.80
2022-09-11T23:41:56.254Z,0.60
2022-09-11T23:44:26.041Z,0.80
2022-09-11T23:46:54.537Z,0.73
2022-09-11T23:49:23.487Z,0.73
2022-09-11T23:51:51.930Z,0.60
2022-09-11T23:54:20.599Z,0.80
2022-09-11T23:56:49.189Z,0.80
2022-09-11T23:59:17.541Z,0.80
